Glendale Luke AFB, Arizona
Current Conditions -  °F | °C
As of 3:58 PM on Tuesday 25 Nov 2014 (Local Time) from KLUF Reporting Station
Clear Clear  
Wind Chill: 67°   Ceiling: Unl
Heat Index: 67°   Visibility: 10mi
Dew Point:   Wind: 1mph
Humidity: 8%   Direction: 190°S
Pressure: 30.29"   Gusts: NA
Location:  33.5402°N, 112.349°W
Report Text: KLUF 252258Z AUTO 19001KT 10SM CLR 20/M16 A3029 RMK AO2 SLP255 T01951165 $
Loading
Personal Weather Stations






























Interactive Weather Map New forecast layout! Learn more

10-Day Weather Forecast

Advertisements
Track Severe Weather on mobile